sensor_id;sensor_type;location;lat;lon;timestamp;P1;durP1;ratioP1;P2;durP2;ratioP2
9449;SDS011;4763;48.370;10.874;2023-08-20T00:00:32;13.25;;;5.82;;
9449;SDS011;4763;48.370;10.874;2023-08-20T00:03:02;8.32;;;5.43;;
9449;SDS011;4763;48.370;10.874;2023-08-20T00:05:30;9.27;;;5.57;;
9449;SDS011;4763;48.370;10.874;2023-08-20T00:07:58;9.65;;;5.25;;
9449;SDS011;4763;48.370;10.874;2023-08-20T00:10:25;6.35;;;5.22;;
9449;SDS011;4763;48.370;10.874;2023-08-20T00:12:52;6.85;;;5.25;;
9449;SDS011;4763;48.370;10.874;2023-08-20T00:15:18;8.13;;;4.90;;
9449;SDS011;4763;48.370;10.874;2023-08-20T00:17:47;8.45;;;5.95;;
9449;SDS011;4763;48.370;10.874;2023-08-20T00:20:16;10.18;;;5.63;;
9449;SDS011;4763;48.370;10.874;2023-08-20T00:22:43;11.88;;;6.25;;
9449;SDS011;4763;48.370;10.874;2023-08-20T00:25:12;8.48;;;5.72;;
9449;SDS011;4763;48.370;10.874;2023-08-20T00:27:40;9.02;;;5.95;;
9449;SDS011;4763;48.370;10.874;2023-08-20T00:30:07;11.43;;;6.45;;
9449;SDS011;4763;48.370;10.874;2023-08-20T00:32:35;10.13;;;6.05;;
9449;SDS011;4763;48.370;10.874;2023-08-20T00:35:02;9.35;;;5.53;;
9449;SDS011;4763;48.370;10.874;2023-08-20T00:37:31;9.50;;;5.63;;
9449;SDS011;4763;48.370;10.874;2023-08-20T00:39:57;6.20;;;5.40;;
9449;SDS011;4763;48.370;10.874;2023-08-20T00:42:24;7.55;;;5.53;;
9449;SDS011;4763;48.370;10.874;2023-08-20T00:44:51;10.02;;;5.75;;
9449;SDS011;4763;48.370;10.874;2023-08-20T00:47:18;5.47;;;4.40;;
9449;SDS011;4763;48.370;10.874;2023-08-20T00:49:46;7.38;;;5.20;;
9449;SDS011;4763;48.370;10.874;2023-08-20T00:52:14;8.07;;;5.20;;
9449;SDS011;4763;48.370;10.874;2023-08-20T00:54:44;7.03;;;5.70;;
9449;SDS011;4763;48.370;10.874;2023-08-20T00:57:12;9.15;;;4.88;;
9449;SDS011;4763;48.370;10.874;2023-08-20T00:59:40;5.82;;;4.95;;
9449;SDS011;4763;48.370;10.874;2023-08-20T01:02:07;7.78;;;4.85;;
9449;SDS011;4763;48.370;10.874;2023-08-20T01:04:35;7.28;;;4.65;;
9449;SDS011;4763;48.370;10.874;2023-08-20T01:07:03;6.80;;;4.97;;
9449;SDS011;4763;48.370;10.874;2023-08-20T01:09:42;34.75;;;7.15;;
9449;SDS011;4763;48.370;10.874;2023-08-20T01:12:16;8.90;;;5.68;;
9449;SDS011;4763;48.370;10.874;2023-08-20T01:14:43;8.07;;;4.80;;
9449;SDS011;4763;48.370;10.874;2023-08-20T01:17:10;9.02;;;4.85;;
9449;SDS011;4763;48.370;10.874;2023-08-20T01:19:37;6.13;;;5.20;;
9449;SDS011;4763;48.370;10.874;2023-08-20T01:25:08;5.03;;;4.43;;
9449;SDS011;4763;48.370;10.874;2023-08-20T01:27:43;6.68;;;4.93;;
9449;SDS011;4763;48.370;10.874;2023-08-20T01:30:19;7.53;;;5.78;;
9449;SDS011;4763;48.370;10.874;2023-08-20T01:32:47;9.70;;;6.22;;
9449;SDS011;4763;48.370;10.874;2023-08-20T01:35:16;11.02;;;5.32;;
9449;SDS011;4763;48.370;10.874;2023-08-20T01:37:44;7.40;;;4.88;;
9449;SDS011;4763;48.370;10.874;2023-08-20T01:40:10;7.55;;;4.90;;
9449;SDS011;4763;48.370;10.874;2023-08-20T01:42:38;15.65;;;5.18;;
9449;SDS011;4763;48.370;10.874;2023-08-20T01:45:06;8.40;;;4.93;;
9449;SDS011;4763;48.370;10.874;2023-08-20T01:47:34;6.57;;;4.80;;
9449;SDS011;4763;48.370;10.874;2023-08-20T01:50:01;7.20;;;5.18;;
9449;SDS011;4763;48.370;10.874;2023-08-20T01:52:29;9.02;;;5.65;;
9449;SDS011;4763;48.370;10.874;2023-08-20T01:54:56;7.60;;;4.78;;
9449;SDS011;4763;48.370;10.874;2023-08-20T01:57:24;6.80;;;4.70;;
9449;SDS011;4763;48.370;10.874;2023-08-20T01:59:50;6.65;;;4.55;;
9449;SDS011;4763;48.370;10.874;2023-08-20T02:02:17;7.35;;;5.07;;
9449;SDS011;4763;48.370;10.874;2023-08-20T02:04:45;6.88;;;5.10;;
9449;SDS011;4763;48.370;10.874;2023-08-20T02:07:12;7.30;;;5.22;;
9449;SDS011;4763;48.370;10.874;2023-08-20T02:09:39;9.45;;;5.30;;
9449;SDS011;4763;48.370;10.874;2023-08-20T02:12:06;6.28;;;5.53;;
9449;SDS011;4763;48.370;10.874;2023-08-20T02:14:33;10.18;;;5.32;;
9449;SDS011;4763;48.370;10.874;2023-08-20T02:17:00;7.70;;;5.20;;
9449;SDS011;4763;48.370;10.874;2023-08-20T02:19:27;6.05;;;4.63;;
9449;SDS011;4763;48.370;10.874;2023-08-20T02:21:55;6.63;;;4.68;;
9449;SDS011;4763;48.370;10.874;2023-08-20T02:24:22;11.32;;;5.72;;
9449;SDS011;4763;48.370;10.874;2023-08-20T02:26:49;6.53;;;4.60;;
9449;SDS011;4763;48.370;10.874;2023-08-20T02:29:16;9.13;;;4.40;;
9449;SDS011;4763;48.370;10.874;2023-08-20T02:31:42;6.80;;;4.75;;
9449;SDS011;4763;48.370;10.874;2023-08-20T02:34:09;7.93;;;4.88;;
9449;SDS011;4763;48.370;10.874;2023-08-20T02:36:36;10.07;;;5.13;;
9449;SDS011;4763;48.370;10.874;2023-08-20T02:39:04;10.95;;;5.78;;
9449;SDS011;4763;48.370;10.874;2023-08-20T02:41:32;7.82;;;4.90;;
9449;SDS011;4763;48.370;10.874;2023-08-20T02:43:59;7.28;;;5.15;;
9449;SDS011;4763;48.370;10.874;2023-08-20T02:46:26;10.35;;;5.00;;
9449;SDS011;4763;48.370;10.874;2023-08-20T02:48:53;6.05;;;4.72;;
9449;SDS011;4763;48.370;10.874;2023-08-20T02:51:20;5.55;;;5.05;;
9449;SDS011;4763;48.370;10.874;2023-08-20T02:53:47;9.55;;;4.95;;
9449;SDS011;4763;48.370;10.874;2023-08-20T02:56:16;7.40;;;5.60;;
9449;SDS011;4763;48.370;10.874;2023-08-20T02:58:43;6.68;;;5.07;;
9449;SDS011;4763;48.370;10.874;2023-08-20T03:01:17;6.85;;;4.85;;
9449;SDS011;4763;48.370;10.874;2023-08-20T03:03:44;5.68;;;4.55;;
9449;SDS011;4763;48.370;10.874;2023-08-20T03:06:11;6.88;;;6.05;;
9449;SDS011;4763;48.370;10.874;2023-08-20T03:08:38;11.23;;;5.43;;
9449;SDS011;4763;48.370;10.874;2023-08-20T03:11:05;8.07;;;5.40;;
9449;SDS011;4763;48.370;10.874;2023-08-20T03:13:33;9.32;;;6.50;;
9449;SDS011;4763;48.370;10.874;2023-08-20T03:16:00;11.07;;;5.65;;
9449;SDS011;4763;48.370;10.874;2023-08-20T03:18:27;6.30;;;4.97;;
9449;SDS011;4763;48.370;10.874;2023-08-20T03:20:56;9.38;;;5.55;;
9449;SDS011;4763;48.370;10.874;2023-08-20T03:23:23;6.20;;;5.47;;
9449;SDS011;4763;48.370;10.874;2023-08-20T03:25:50;6.82;;;5.35;;
9449;SDS011;4763;48.370;10.874;2023-08-20T03:28:20;7.45;;;5.18;;
9449;SDS011;4763;48.370;10.874;2023-08-20T03:30:48;5.80;;;4.85;;
9449;SDS011;4763;48.370;10.874;2023-08-20T03:33:15;9.68;;;5.15;;
9449;SDS011;4763;48.370;10.874;2023-08-20T03:35:42;6.38;;;5.22;;
9449;SDS011;4763;48.370;10.874;2023-08-20T03:38:09;6.10;;;4.80;;
9449;SDS011;4763;48.370;10.874;2023-08-20T03:40:36;8.13;;;4.95;;
9449;SDS011;4763;48.370;10.874;2023-08-20T03:43:03;7.10;;;4.85;;
9449;SDS011;4763;48.370;10.874;2023-08-20T03:45:30;6.68;;;5.50;;
9449;SDS011;4763;48.370;10.874;2023-08-20T03:47:58;10.50;;;6.60;;
9449;SDS011;4763;48.370;10.874;2023-08-20T03:50:25;11.15;;;6.10;;
9449;SDS011;4763;48.370;10.874;2023-08-20T03:52:51;8.98;;;4.90;;
9449;SDS011;4763;48.370;10.874;2023-08-20T03:55:18;7.63;;;4.78;;
9449;SDS011;4763;48.370;10.874;2023-08-20T03:57:45;9.13;;;4.78;;
9449;SDS011;4763;48.370;10.874;2023-08-20T04:00:12;8.70;;;5.18;;
9449;SDS011;4763;48.370;10.874;2023-08-20T04:02:39;9.35;;;5.55;;
9449;SDS011;4763;48.370;10.874;2023-08-20T04:05:08;6.97;;;5.47;;
9449;SDS011;4763;48.370;10.874;2023-08-20T04:07:35;5.35;;;4.47;;
9449;SDS011;4763;48.370;10.874;2023-08-20T04:10:04;6.53;;;5.18;;
9449;SDS011;4763;48.370;10.874;2023-08-20T04:12:33;8.02;;;5.30;;
9449;SDS011;4763;48.370;10.874;2023-08-20T04:15:00;7.90;;;4.70;;
9449;SDS011;4763;48.370;10.874;2023-08-20T04:17:27;5.43;;;4.78;;
9449;SDS011;4763;48.370;10.874;2023-08-20T04:19:54;7.10;;;4.97;;
9449;SDS011;4763;48.370;10.874;2023-08-20T04:22:22;8.20;;;4.95;;
9449;SDS011;4763;48.370;10.874;2023-08-20T04:24:50;7.25;;;5.10;;
9449;SDS011;4763;48.370;10.874;2023-08-20T04:27:17;9.27;;;5.63;;
9449;SDS011;4763;48.370;10.874;2023-08-20T04:29:45;7.07;;;4.80;;
9449;SDS011;4763;48.370;10.874;2023-08-20T04:32:12;7.65;;;5.05;;
9449;SDS011;4763;48.370;10.874;2023-08-20T04:34:39;10.13;;;5.65;;
9449;SDS011;4763;48.370;10.874;2023-08-20T04:37:06;7.88;;;6.13;;
9449;SDS011;4763;48.370;10.874;2023-08-20T04:39:34;5.47;;;4.97;;
9449;SDS011;4763;48.370;10.874;2023-08-20T04:42:01;6.95;;;5.68;;
9449;SDS011;4763;48.370;10.874;2023-08-20T04:44:28;9.20;;;4.90;;
9449;SDS011;4763;48.370;10.874;2023-08-20T04:46:55;8.82;;;5.88;;
9449;SDS011;4763;48.370;10.874;2023-08-20T04:49:22;7.68;;;5.40;;
9449;SDS011;4763;48.370;10.874;2023-08-20T04:51:53;7.00;;;5.63;;
9449;SDS011;4763;48.370;10.874;2023-08-20T04:54:20;9.70;;;5.78;;
9449;SDS011;4763;48.370;10.874;2023-08-20T04:56:48;8.38;;;5.65;;
9449;SDS011;4763;48.370;10.874;2023-08-20T04:59:14;6.75;;;5.47;;
9449;SDS011;4763;48.370;10.874;2023-08-20T05:01:41;7.05;;;5.70;;
9449;SDS011;4763;48.370;10.874;2023-08-20T05:04:08;10.20;;;6.45;;
9449;SDS011;4763;48.370;10.874;2023-08-20T05:06:35;8.52;;;5.63;;
9449;SDS011;4763;48.370;10.874;2023-08-20T05:09:02;7.10;;;6.05;;
9449;SDS011;4763;48.370;10.874;2023-08-20T05:11:29;9.40;;;5.90;;
9449;SDS011;4763;48.370;10.874;2023-08-20T05:13:59;7.97;;;6.18;;
9449;SDS011;4763;48.370;10.874;2023-08-20T05:16:26;8.63;;;6.22;;
9449;SDS011;4763;48.370;10.874;2023-08-20T05:18:53;12.15;;;6.70;;
9449;SDS011;4763;48.370;10.874;2023-08-20T05:21:20;9.20;;;6.57;;
9449;SDS011;4763;48.370;10.874;2023-08-20T05:23:47;10.05;;;6.50;;
9449;SDS011;4763;48.370;10.874;2023-08-20T05:26:13;11.43;;;6.47;;
9449;SDS011;4763;48.370;10.874;2023-08-20T05:28:40;12.75;;;7.18;;
9449;SDS011;4763;48.370;10.874;2023-08-20T05:31:08;7.32;;;5.82;;
9449;SDS011;4763;48.370;10.874;2023-08-20T05:33:36;9.57;;;6.20;;
9449;SDS011;4763;48.370;10.874;2023-08-20T05:36:02;6.22;;;5.63;;
9449;SDS011;4763;48.370;10.874;2023-08-20T05:38:29;11.63;;;6.95;;
9449;SDS011;4763;48.370;10.874;2023-08-20T05:40:56;7.35;;;5.82;;
9449;SDS011;4763;48.370;10.874;2023-08-20T05:43:23;8.10;;;6.18;;
9449;SDS011;4763;48.370;10.874;2023-08-20T05:45:50;10.18;;;6.85;;
9449;SDS011;4763;48.370;10.874;2023-08-20T05:48:18;9.48;;;6.80;;
9449;SDS011;4763;48.370;10.874;2023-08-20T05:50:44;8.50;;;6.47;;
9449;SDS011;4763;48.370;10.874;2023-08-20T05:53:11;9.43;;;6.47;;
9449;SDS011;4763;48.370;10.874;2023-08-20T05:55:40;7.75;;;6.22;;
9449;SDS011;4763;48.370;10.874;2023-08-20T05:58:07;11.77;;;7.70;;
9449;SDS011;4763;48.370;10.874;2023-08-20T06:00:33;9.77;;;5.47;;
9449;SDS011;4763;48.370;10.874;2023-08-20T06:03:00;7.72;;;6.57;;
9449;SDS011;4763;48.370;10.874;2023-08-20T06:05:28;8.50;;;5.80;;
9449;SDS011;4763;48.370;10.874;2023-08-20T06:07:55;9.88;;;5.97;;
9449;SDS011;4763;48.370;10.874;2023-08-20T06:10:22;10.23;;;6.63;;
9449;SDS011;4763;48.370;10.874;2023-08-20T06:12:49;6.30;;;4.88;;
9449;SDS011;4763;48.370;10.874;2023-08-20T06:15:15;9.05;;;5.75;;
9449;SDS011;4763;48.370;10.874;2023-08-20T06:17:42;10.00;;;5.93;;
9449;SDS011;4763;48.370;10.874;2023-08-20T06:20:09;7.88;;;5.57;;
9449;SDS011;4763;48.370;10.874;2023-08-20T06:22:38;10.48;;;5.78;;
9449;SDS011;4763;48.370;10.874;2023-08-20T06:25:05;7.10;;;5.07;;
9449;SDS011;4763;48.370;10.874;2023-08-20T06:27:35;6.38;;;5.07;;
9449;SDS011;4763;48.370;10.874;2023-08-20T06:30:02;6.93;;;4.97;;
9449;SDS011;4763;48.370;10.874;2023-08-20T06:32:29;5.93;;;5.28;;
9449;SDS011;4763;48.370;10.874;2023-08-20T06:34:56;7.50;;;5.10;;
9449;SDS011;4763;48.370;10.874;2023-08-20T06:37:23;7.55;;;5.65;;
9449;SDS011;4763;48.370;10.874;2023-08-20T06:39:54;7.70;;;5.65;;
9449;SDS011;4763;48.370;10.874;2023-08-20T06:42:38;7.20;;;5.75;;
9449;SDS011;4763;48.370;10.874;2023-08-20T06:45:05;7.15;;;5.70;;
9449;SDS011;4763;48.370;10.874;2023-08-20T06:47:33;6.85;;;5.20;;
9449;SDS011;4763;48.370;10.874;2023-08-20T06:50:00;7.97;;;5.70;;
9449;SDS011;4763;48.370;10.874;2023-08-20T06:52:27;7.10;;;5.15;;
9449;SDS011;4763;48.370;10.874;2023-08-20T06:54:56;6.50;;;5.28;;
9449;SDS011;4763;48.370;10.874;2023-08-20T06:57:23;8.02;;;5.03;;
9449;SDS011;4763;48.370;10.874;2023-08-20T06:59:49;5.85;;;4.97;;
9449;SDS011;4763;48.370;10.874;2023-08-20T07:02:16;6.55;;;5.63;;
9449;SDS011;4763;48.370;10.874;2023-08-20T07:04:43;6.93;;;5.43;;
9449;SDS011;4763;48.370;10.874;2023-08-20T07:07:10;9.35;;;5.72;;
9449;SDS011;4763;48.370;10.874;2023-08-20T07:09:37;8.82;;;5.32;;
9449;SDS011;4763;48.370;10.874;2023-08-20T07:12:06;7.60;;;5.35;;
9449;SDS011;4763;48.370;10.874;2023-08-20T07:14:33;7.68;;;5.75;;
9449;SDS011;4763;48.370;10.874;2023-08-20T07:17:00;9.23;;;6.03;;
9449;SDS011;4763;48.370;10.874;2023-08-20T07:19:27;6.88;;;5.32;;
9449;SDS011;4763;48.370;10.874;2023-08-20T07:21:54;7.53;;;5.57;;
9449;SDS011;4763;48.370;10.874;2023-08-20T07:24:21;8.00;;;5.43;;
9449;SDS011;4763;48.370;10.874;2023-08-20T07:26:50;7.05;;;4.85;;
9449;SDS011;4763;48.370;10.874;2023-08-20T07:29:18;5.90;;;5.20;;
9449;SDS011;4763;48.370;10.874;2023-08-20T07:31:45;7.00;;;5.30;;
9449;SDS011;4763;48.370;10.874;2023-08-20T07:34:12;10.48;;;5.18;;
9449;SDS011;4763;48.370;10.874;2023-08-20T07:36:42;7.03;;;5.05;;
9449;SDS011;4763;48.370;10.874;2023-08-20T07:39:11;6.70;;;5.43;;
9449;SDS011;4763;48.370;10.874;2023-08-20T07:41:37;7.82;;;5.55;;
9449;SDS011;4763;48.370;10.874;2023-08-20T07:44:06;5.90;;;5.10;;
9449;SDS011;4763;48.370;10.874;2023-08-20T07:46:34;7.28;;;4.68;;
9449;SDS011;4763;48.370;10.874;2023-08-20T07:49:01;7.93;;;5.80;;
9449;SDS011;4763;48.370;10.874;2023-08-20T07:51:28;8.75;;;5.13;;
9449;SDS011;4763;48.370;10.874;2023-08-20T07:53:55;7.95;;;5.20;;
9449;SDS011;4763;48.370;10.874;2023-08-20T07:56:23;10.07;;;5.20;;
9449;SDS011;4763;48.370;10.874;2023-08-20T07:58:50;7.93;;;4.90;;
9449;SDS011;4763;48.370;10.874;2023-08-20T08:01:17;7.75;;;4.63;;
9449;SDS011;4763;48.370;10.874;2023-08-20T08:03:45;9.77;;;4.97;;
9449;SDS011;4763;48.370;10.874;2023-08-20T08:06:12;7.38;;;5.47;;
9449;SDS011;4763;48.370;10.874;2023-08-20T08:08:41;5.93;;;4.72;;
9449;SDS011;4763;48.370;10.874;2023-08-20T08:11:09;5.05;;;4.55;;
9449;SDS011;4763;48.370;10.874;2023-08-20T08:13:36;7.22;;;4.82;;
9449;SDS011;4763;48.370;10.874;2023-08-20T08:16:03;11.23;;;5.22;;
9449;SDS011;4763;48.370;10.874;2023-08-20T08:18:30;9.68;;;5.00;;
9449;SDS011;4763;48.370;10.874;2023-08-20T08:20:58;7.65;;;5.25;;
9449;SDS011;4763;48.370;10.874;2023-08-20T08:23:24;5.68;;;4.70;;
9449;SDS011;4763;48.370;10.874;2023-08-20T08:25:51;6.97;;;4.80;;
9449;SDS011;4763;48.370;10.874;2023-08-20T08:28:18;9.95;;;5.25;;
9449;SDS011;4763;48.370;10.874;2023-08-20T08:30:45;8.27;;;4.70;;
9449;SDS011;4763;48.370;10.874;2023-08-20T08:33:12;7.07;;;4.63;;
9449;SDS011;4763;48.370;10.874;2023-08-20T08:35:38;7.95;;;4.70;;
9449;SDS011;4763;48.370;10.874;2023-08-20T08:38:07;8.15;;;4.53;;
9449;SDS011;4763;48.370;10.874;2023-08-20T08:40:33;7.57;;;4.75;;
9449;SDS011;4763;48.370;10.874;2023-08-20T08:43:00;5.32;;;4.15;;
9449;SDS011;4763;48.370;10.874;2023-08-20T08:45:28;7.78;;;4.57;;
9449;SDS011;4763;48.370;10.874;2023-08-20T08:47:56;8.55;;;5.47;;
9449;SDS011;4763;48.370;10.874;2023-08-20T08:50:23;8.15;;;4.78;;
9449;SDS011;4763;48.370;10.874;2023-08-20T08:52:50;5.47;;;4.53;;
9449;SDS011;4763;48.370;10.874;2023-08-20T08:55:19;7.78;;;4.25;;
9449;SDS011;4763;48.370;10.874;2023-08-20T08:57:46;6.18;;;4.13;;
9449;SDS011;4763;48.370;10.874;2023-08-20T09:00:13;7.28;;;4.78;;
9449;SDS011;4763;48.370;10.874;2023-08-20T09:02:40;7.10;;;4.25;;
9449;SDS011;4763;48.370;10.874;2023-08-20T09:05:07;4.65;;;3.72;;
9449;SDS011;4763;48.370;10.874;2023-08-20T09:07:34;8.48;;;4.20;;
9449;SDS011;4763;48.370;10.874;2023-08-20T09:10:01;4.53;;;3.92;;
9449;SDS011;4763;48.370;10.874;2023-08-20T09:12:29;6.20;;;3.92;;
9449;SDS011;4763;48.370;10.874;2023-08-20T09:15:00;8.48;;;3.83;;
9449;SDS011;4763;48.370;10.874;2023-08-20T09:17:28;5.55;;;3.40;;
9449;SDS011;4763;48.370;10.874;2023-08-20T09:19:56;7.05;;;3.50;;
9449;SDS011;4763;48.370;10.874;2023-08-20T09:22:23;4.47;;;3.55;;
9449;SDS011;4763;48.370;10.874;2023-08-20T09:24:53;7.55;;;3.80;;
9449;SDS011;4763;48.370;10.874;2023-08-20T09:27:21;6.90;;;3.80;;
9449;SDS011;4763;48.370;10.874;2023-08-20T09:29:50;9.32;;;3.60;;
9449;SDS011;4763;48.370;10.874;2023-08-20T09:32:20;6.10;;;3.78;;
9449;SDS011;4763;48.370;10.874;2023-08-20T09:34:48;8.50;;;4.05;;
9449;SDS011;4763;48.370;10.874;2023-08-20T09:37:15;5.00;;;3.72;;
9449;SDS011;4763;48.370;10.874;2023-08-20T09:39:43;6.85;;;3.47;;
9449;SDS011;4763;48.370;10.874;2023-08-20T09:42:11;5.80;;;3.75;;
9449;SDS011;4763;48.370;10.874;2023-08-20T09:44:39;10.52;;;3.65;;
9449;SDS011;4763;48.370;10.874;2023-08-20T09:47:09;4.93;;;3.75;;
9449;SDS011;4763;48.370;10.874;2023-08-20T09:49:37;5.57;;;3.33;;
9449;SDS011;4763;48.370;10.874;2023-08-20T09:52:05;3.47;;;3.08;;
9449;SDS011;4763;48.370;10.874;2023-08-20T09:54:46;6.32;;;3.15;;
9449;SDS011;4763;48.370;10.874;2023-08-20T09:57:30;5.80;;;3.33;;
9449;SDS011;4763;48.370;10.874;2023-08-20T10:00:00;6.25;;;3.60;;
9449;SDS011;4763;48.370;10.874;2023-08-20T10:02:31;5.55;;;3.30;;
9449;SDS011;4763;48.370;10.874;2023-08-20T10:04:59;6.47;;;3.70;;
9449;SDS011;4763;48.370;10.874;2023-08-20T10:07:28;7.47;;;3.30;;
9449;SDS011;4763;48.370;10.874;2023-08-20T10:09:57;11.73;;;3.53;;
9449;SDS011;4763;48.370;10.874;2023-08-20T10:12:26;8.25;;;3.53;;
9449;SDS011;4763;48.370;10.874;2023-08-20T10:14:53;5.28;;;3.45;;
9449;SDS011;4763;48.370;10.874;2023-08-20T10:17:21;5.78;;;3.13;;
9449;SDS011;4763;48.370;10.874;2023-08-20T10:19:50;5.57;;;3.40;;
9449;SDS011;4763;48.370;10.874;2023-08-20T10:22:18;8.40;;;3.88;;
9449;SDS011;4763;48.370;10.874;2023-08-20T10:24:48;9.20;;;3.45;;
9449;SDS011;4763;48.370;10.874;2023-08-20T10:27:25;7.35;;;3.10;;
9449;SDS011;4763;48.370;10.874;2023-08-20T10:29:53;5.80;;;3.17;;
9449;SDS011;4763;48.370;10.874;2023-08-20T10:32:20;4.95;;;3.15;;
9449;SDS011;4763;48.370;10.874;2023-08-20T10:35:08;3.00;;;2.70;;
9449;SDS011;4763;48.370;10.874;2023-08-20T10:37:35;5.13;;;3.38;;
9449;SDS011;4763;48.370;10.874;2023-08-20T10:40:05;6.22;;;3.28;;
9449;SDS011;4763;48.370;10.874;2023-08-20T10:42:34;4.13;;;3.00;;
9449;SDS011;4763;48.370;10.874;2023-08-20T10:45:07;5.63;;;3.05;;
9449;SDS011;4763;48.370;10.874;2023-08-20T10:47:44;5.55;;;3.45;;
9449;SDS011;4763;48.370;10.874;2023-08-20T10:50:16;7.28;;;3.22;;
9449;SDS011;4763;48.370;10.874;2023-08-20T10:52:48;7.70;;;3.28;;
9449;SDS011;4763;48.370;10.874;2023-08-20T10:55:21;5.22;;;3.15;;
9449;SDS011;4763;48.370;10.874;2023-08-20T10:57:54;5.78;;;2.90;;
9449;SDS011;4763;48.370;10.874;2023-08-20T11:00:21;6.75;;;2.92;;
9449;SDS011;4763;48.370;10.874;2023-08-20T11:02:51;3.88;;;2.70;;
9449;SDS011;4763;48.370;10.874;2023-08-20T11:05:20;9.60;;;3.45;;
9449;SDS011;4763;48.370;10.874;2023-08-20T11:07:47;20.05;;;3.25;;
9449;SDS011;4763;48.370;10.874;2023-08-20T11:10:15;4.90;;;3.35;;
9449;SDS011;4763;48.370;10.874;2023-08-20T11:12:42;5.25;;;3.00;;
9449;SDS011;4763;48.370;10.874;2023-08-20T11:15:11;3.60;;;2.67;;
9449;SDS011;4763;48.370;10.874;2023-08-20T11:17:42;5.53;;;2.90;;
9449;SDS011;4763;48.370;10.874;2023-08-20T11:20:09;7.80;;;2.95;;
9449;SDS011;4763;48.370;10.874;2023-08-20T11:22:40;4.35;;;2.80;;
9449;SDS011;4763;48.370;10.874;2023-08-20T11:25:10;6.05;;;2.90;;
9449;SDS011;4763;48.370;10.874;2023-08-20T11:27:40;4.15;;;2.85;;
9449;SDS011;4763;48.370;10.874;2023-08-20T11:30:07;3.33;;;2.30;;
9449;SDS011;4763;48.370;10.874;2023-08-20T11:32:37;4.90;;;2.60;;
9449;SDS011;4763;48.370;10.874;2023-08-20T11:35:04;9.35;;;2.50;;
9449;SDS011;4763;48.370;10.874;2023-08-20T11:37:32;5.43;;;2.60;;
9449;SDS011;4763;48.370;10.874;2023-08-20T11:40:01;7.20;;;2.40;;
9449;SDS011;4763;48.370;10.874;2023-08-20T11:42:28;6.53;;;2.80;;
9449;SDS011;4763;48.370;10.874;2023-08-20T11:44:55;4.53;;;2.88;;
9449;SDS011;4763;48.370;10.874;2023-08-20T11:47:23;4.35;;;2.40;;
9449;SDS011;4763;48.370;10.874;2023-08-20T11:50:01;4.05;;;2.33;;
9449;SDS011;4763;48.370;10.874;2023-08-20T11:52:30;3.13;;;2.50;;
9449;SDS011;4763;48.370;10.874;2023-08-20T11:54:58;3.05;;;2.40;;
9449;SDS011;4763;48.370;10.874;2023-08-20T11:57:26;4.25;;;2.60;;
9449;SDS011;4763;48.370;10.874;2023-08-20T11:59:55;6.15;;;2.50;;
9449;SDS011;4763;48.370;10.874;2023-08-20T12:02:25;4.30;;;2.80;;
9449;SDS011;4763;48.370;10.874;2023-08-20T12:04:55;4.05;;;2.63;;
9449;SDS011;4763;48.370;10.874;2023-08-20T12:07:24;4.65;;;2.85;;
9449;SDS011;4763;48.370;10.874;2023-08-20T12:09:51;2.38;;;2.10;;
9449;SDS011;4763;48.370;10.874;2023-08-20T12:12:19;4.75;;;2.78;;
9449;SDS011;4763;48.370;10.874;2023-08-20T12:14:47;5.65;;;2.70;;
9449;SDS011;4763;48.370;10.874;2023-08-20T12:17:16;3.15;;;2.50;;
9449;SDS011;4763;48.370;10.874;2023-08-20T12:19:43;5.32;;;2.58;;
9449;SDS011;4763;48.370;10.874;2023-08-20T12:22:10;3.30;;;2.35;;
9449;SDS011;4763;48.370;10.874;2023-08-20T12:24:37;5.88;;;2.00;;
9449;SDS011;4763;48.370;10.874;2023-08-20T12:27:04;4.40;;;2.72;;
9449;SDS011;4763;48.370;10.874;2023-08-20T12:29:33;7.07;;;2.67;;
9449;SDS011;4763;48.370;10.874;2023-08-20T12:32:04;6.80;;;2.53;;
9449;SDS011;4763;48.370;10.874;2023-08-20T12:34:32;4.82;;;2.47;;
9449;SDS011;4763;48.370;10.874;2023-08-20T12:36:59;6.18;;;2.78;;
9449;SDS011;4763;48.370;10.874;2023-08-20T12:39:27;4.45;;;2.00;;
9449;SDS011;4763;48.370;10.874;2023-08-20T12:41:53;3.13;;;2.40;;
9449;SDS011;4763;48.370;10.874;2023-08-20T12:44:20;5.40;;;2.33;;
9449;SDS011;4763;48.370;10.874;2023-08-20T12:46:47;3.58;;;2.53;;
9449;SDS011;4763;48.370;10.874;2023-08-20T12:49:15;2.17;;;1.98;;
9449;SDS011;4763;48.370;10.874;2023-08-20T12:51:42;5.53;;;2.47;;
9449;SDS011;4763;48.370;10.874;2023-08-20T12:54:09;3.33;;;2.50;;
9449;SDS011;4763;48.370;10.874;2023-08-20T12:56:36;5.28;;;3.72;;
9449;SDS011;4763;48.370;10.874;2023-08-20T12:59:03;4.97;;;2.25;;
9449;SDS011;4763;48.370;10.874;2023-08-20T13:01:30;4.63;;;3.13;;
9449;SDS011;4763;48.370;10.874;2023-08-20T13:03:57;4.07;;;2.60;;
9449;SDS011;4763;48.370;10.874;2023-08-20T13:06:25;4.45;;;2.67;;
9449;SDS011;4763;48.370;10.874;2023-08-20T13:08:53;3.97;;;2.70;;
9449;SDS011;4763;48.370;10.874;2023-08-20T13:11:20;7.93;;;2.90;;
9449;SDS011;4763;48.370;10.874;2023-08-20T13:13:50;5.60;;;2.42;;
9449;SDS011;4763;48.370;10.874;2023-08-20T13:16:18;3.90;;;2.65;;
9449;SDS011;4763;48.370;10.874;2023-08-20T13:18:45;3.97;;;2.38;;
9449;SDS011;4763;48.370;10.874;2023-08-20T13:21:12;4.28;;;2.60;;
9449;SDS011;4763;48.370;10.874;2023-08-20T13:23:41;8.07;;;2.70;;
9449;SDS011;4763;48.370;10.874;2023-08-20T13:26:09;2.88;;;2.30;;
9449;SDS011;4763;48.370;10.874;2023-08-20T13:28:36;6.97;;;2.30;;
9449;SDS011;4763;48.370;10.874;2023-08-20T13:31:02;4.85;;;2.30;;
9449;SDS011;4763;48.370;10.874;2023-08-20T13:33:29;4.22;;;2.67;;
9449;SDS011;4763;48.370;10.874;2023-08-20T13:35:56;4.68;;;2.50;;
9449;SDS011;4763;48.370;10.874;2023-08-20T13:38:23;3.58;;;2.47;;
9449;SDS011;4763;48.370;10.874;2023-08-20T13:40:52;5.25;;;2.65;;
9449;SDS011;4763;48.370;10.874;2023-08-20T13:43:18;2.58;;;2.20;;
9449;SDS011;4763;48.370;10.874;2023-08-20T13:45:45;4.40;;;2.58;;
9449;SDS011;4763;48.370;10.874;2023-08-20T13:48:12;5.07;;;2.83;;
9449;SDS011;4763;48.370;10.874;2023-08-20T13:50:39;4.82;;;2.60;;
9449;SDS011;4763;48.370;10.874;2023-08-20T13:53:05;6.65;;;3.10;;
9449;SDS011;4763;48.370;10.874;2023-08-20T13:55:32;3.25;;;2.80;;
9449;SDS011;4763;48.370;10.874;2023-08-20T13:58:00;3.85;;;2.92;;
9449;SDS011;4763;48.370;10.874;2023-08-20T14:00:27;4.93;;;2.70;;
9449;SDS011;4763;48.370;10.874;2023-08-20T14:02:54;5.15;;;2.30;;
9449;SDS011;4763;48.370;10.874;2023-08-20T14:05:21;3.45;;;2.47;;
9449;SDS011;4763;48.370;10.874;2023-08-20T14:07:49;3.00;;;2.40;;
9449;SDS011;4763;48.370;10.874;2023-08-20T14:10:16;4.65;;;2.45;;
9449;SDS011;4763;48.370;10.874;2023-08-20T14:12:43;4.30;;;2.80;;
9449;SDS011;4763;48.370;10.874;2023-08-20T14:15:11;3.42;;;2.47;;
9449;SDS011;4763;48.370;10.874;2023-08-20T14:17:38;3.42;;;2.55;;
9449;SDS011;4763;48.370;10.874;2023-08-20T14:20:05;12.10;;;2.83;;
9449;SDS011;4763;48.370;10.874;2023-08-20T14:22:33;4.22;;;2.38;;
9449;SDS011;4763;48.370;10.874;2023-08-20T14:25:00;5.93;;;2.30;;
9449;SDS011;4763;48.370;10.874;2023-08-20T14:27:28;5.10;;;2.65;;
9449;SDS011;4763;48.370;10.874;2023-08-20T14:29:55;7.72;;;2.42;;
9449;SDS011;4763;48.370;10.874;2023-08-20T14:32:23;3.88;;;2.20;;
9449;SDS011;4763;48.370;10.874;2023-08-20T14:34:50;7.85;;;2.58;;
9449;SDS011;4763;48.370;10.874;2023-08-20T14:37:17;2.60;;;2.22;;
9449;SDS011;4763;48.370;10.874;2023-08-20T14:39:43;4.20;;;2.30;;
9449;SDS011;4763;48.370;10.874;2023-08-20T14:42:10;4.60;;;2.13;;
9449;SDS011;4763;48.370;10.874;2023-08-20T14:44:37;5.05;;;2.25;;
9449;SDS011;4763;48.370;10.874;2023-08-20T14:47:04;5.68;;;2.45;;
9449;SDS011;4763;48.370;10.874;2023-08-20T14:49:35;3.28;;;2.70;;
9449;SDS011;4763;48.370;10.874;2023-08-20T14:52:02;2.97;;;2.30;;
9449;SDS011;4763;48.370;10.874;2023-08-20T14:54:29;3.17;;;2.38;;
9449;SDS011;4763;48.370;10.874;2023-08-20T14:56:56;4.25;;;2.80;;
9449;SDS011;4763;48.370;10.874;2023-08-20T14:59:23;2.92;;;2.40;;
9449;SDS011;4763;48.370;10.874;2023-08-20T15:01:51;7.57;;;2.90;;
9449;SDS011;4763;48.370;10.874;2023-08-20T15:04:18;6.75;;;2.50;;
9449;SDS011;4763;48.370;10.874;2023-08-20T15:06:46;4.40;;;2.22;;